createdAt,value
2023-02-21T00:01:57.176Z,6.25
2023-02-21T00:03:24.599Z,6.09
2023-02-21T00:04:52.325Z,6.25
2023-02-21T00:07:52.530Z,6.48
2023-02-21T00:09:20.254Z,6.37
2023-02-21T00:10:48.102Z,6.29
2023-02-21T00:12:16.320Z,6.33
2023-02-21T00:15:18.084Z,6.50
2023-02-21T00:16:46.827Z,6.37
2023-02-21T00:18:16.058Z,6.10
2023-02-21T00:19:43.848Z,6.17
2023-02-21T00:21:11.893Z,6.11
2023-02-21T00:22:39.213Z,6.06
2023-02-21T00:24:06.608Z,6.04
2023-02-21T00:25:34.501Z,6.04
2023-02-21T00:27:03.696Z,6.09
2023-02-21T00:28:31.510Z,6.23
2023-02-21T00:30:01.145Z,6.29
2023-02-21T00:31:29.287Z,6.31
2023-02-21T00:32:56.639Z,6.27
2023-02-21T00:34:23.586Z,6.42
2023-02-21T00:35:51.370Z,6.39
2023-02-21T00:37:18.700Z,6.58
2023-02-21T00:38:46.588Z,6.70
2023-02-21T00:40:14.654Z,6.65
2023-02-21T00:43:15.903Z,6.95
2023-02-21T00:44:43.265Z,6.85
2023-02-21T00:46:10.298Z,6.90
2023-02-21T00:47:38.217Z,6.93
2023-02-21T00:49:05.464Z,6.88
2023-02-21T00:50:34.290Z,6.64
2023-02-21T00:53:34.682Z,6.39
2023-02-21T00:55:02.434Z,6.23
2023-02-21T00:56:31.082Z,6.18
2023-02-21T00:57:58.378Z,6.14
2023-02-21T00:59:25.799Z,6.20
2023-02-21T01:00:53.658Z,6.29
2023-02-21T01:02:22.852Z,6.32
2023-02-21T01:03:52.993Z,6.42
2023-02-21T01:05:19.771Z,6.53
2023-02-21T01:06:48.203Z,6.56
2023-02-21T01:08:17.391Z,6.42
2023-02-21T01:09:44.722Z,6.56
2023-02-21T01:11:13.135Z,6.70
2023-02-21T01:12:40.440Z,6.79
2023-02-21T01:14:09.347Z,6.73
2023-02-21T01:15:36.914Z,6.85
2023-02-21T01:17:12.737Z,6.89
2023-02-21T01:18:35.481Z,6.85
2023-02-21T01:20:04.195Z,6.87
2023-02-21T01:21:36.313Z,7.08
2023-02-21T01:23:05.346Z,7.03
2023-02-21T01:24:35.516Z,6.89
2023-02-21T01:26:02.839Z,6.92
2023-02-21T01:27:30.905Z,6.73
2023-02-21T01:28:58.996Z,6.79
2023-02-21T01:32:00.480Z,6.52
2023-02-21T01:33:29.262Z,6.33
2023-02-21T01:34:57.544Z,6.41
2023-02-21T01:36:26.669Z,6.52
2023-02-21T01:37:54.855Z,6.51
2023-02-21T01:39:22.039Z,6.60
2023-02-21T01:40:49.489Z,6.81
2023-02-21T01:42:17.078Z,6.88
2023-02-21T01:43:45.983Z,7.03
2023-02-21T01:45:42.918Z,7.07
2023-02-21T01:47:10.749Z,7.06
2023-02-21T01:48:40.753Z,7.03
2023-02-21T01:50:08.646Z,7.03
2023-02-21T01:51:38.803Z,6.97
2023-02-21T01:53:08.983Z,6.83
2023-02-21T01:54:38.968Z,6.81
2023-02-21T01:56:07.712Z,6.67
2023-02-21T01:57:37.188Z,6.52
2023-02-21T01:59:08.421Z,6.41
2023-02-21T02:00:39.667Z,6.38
2023-02-21T02:02:15.464Z,6.35
2023-02-21T02:03:45.008Z,6.39
2023-02-21T02:05:15.020Z,6.57
2023-02-21T02:06:43.869Z,6.58
2023-02-21T02:08:12.210Z,6.68
2023-02-21T02:09:41.116Z,6.66
2023-02-21T02:11:15.567Z,6.83
2023-02-21T02:12:30.842Z,6.64
2023-02-21T02:13:50.690Z,6.78
2023-02-21T02:16:47.386Z,6.88
2023-02-21T02:18:20.995Z,6.76
2023-02-21T02:20:02.128Z,6.74
2023-02-21T02:21:49.808Z,6.68
2023-02-21T02:23:19.845Z,6.53
2023-02-21T02:24:48.995Z,6.48
2023-02-21T02:26:35.131Z,6.40
2023-02-21T02:29:48.424Z,6.27
2023-02-21T02:31:19.521Z,6.27
2023-02-21T02:32:58.589Z,6.30
2023-02-21T02:34:28.406Z,6.32
2023-02-21T02:35:50.605Z,6.44
2023-02-21T02:37:04.027Z,6.58
2023-02-21T02:38:16.696Z,6.61
2023-02-21T02:39:39.340Z,6.69
2023-02-21T02:41:12.996Z,6.80
2023-02-21T02:42:44.716Z,6.77
2023-02-21T02:44:01.563Z,6.90
2023-02-21T02:45:14.752Z,6.87
2023-02-21T02:47:45.817Z,6.67
2023-02-21T02:49:05.349Z,6.40
2023-02-21T02:50:16.658Z,6.40
2023-02-21T02:51:26.006Z,6.23
2023-02-21T02:52:38.263Z,6.27
2023-02-21T02:53:47.817Z,6.23
2023-02-21T02:55:03.772Z,6.19
2023-02-21T02:56:17.147Z,6.18
2023-02-21T02:57:28.068Z,6.11
2023-02-21T02:58:40.901Z,6.10
2023-02-21T02:59:50.326Z,6.23
2023-02-21T03:02:27.551Z,6.44
2023-02-21T03:05:25.876Z,6.24
2023-02-21T03:06:54.830Z,6.06
2023-02-21T03:09:58.500Z,6.09
2023-02-21T03:11:14.998Z,5.92
2023-02-21T03:12:32.741Z,5.86
2023-02-21T03:15:13.388Z,5.95
2023-02-21T03:16:29.474Z,5.88
2023-02-21T03:17:43.746Z,5.87
2023-02-21T03:19:14.119Z,5.93
2023-02-21T03:20:24.713Z,6.02
2023-02-21T03:21:46.772Z,6.20
2023-02-21T03:22:57.139Z,6.25
2023-02-21T03:24:09.794Z,6.21
2023-02-21T03:25:21.938Z,6.04
2023-02-21T03:26:35.414Z,6.07
2023-02-21T03:27:53.764Z,6.10
2023-02-21T03:29:05.697Z,6.07
2023-02-21T03:30:16.644Z,6.01
2023-02-21T03:31:29.582Z,5.92
2023-02-21T03:32:46.864Z,5.79
2023-02-21T03:33:56.424Z,5.79
2023-02-21T03:35:07.016Z,5.76
2023-02-21T03:36:15.723Z,5.66
2023-02-21T03:37:34.282Z,5.72
2023-02-21T03:38:45.038Z,5.68
2023-02-21T03:39:54.549Z,5.81
2023-02-21T03:42:21.532Z,6.16
2023-02-21T03:43:30.837Z,6.04
2023-02-21T03:44:41.333Z,6.12
2023-02-21T03:45:50.443Z,6.18
2023-02-21T03:47:01.702Z,6.18
2023-02-21T03:48:13.891Z,6.11
2023-02-21T03:49:23.830Z,6.02
2023-02-21T03:50:44.217Z,6.04
2023-02-21T03:53:10.673Z,6.13
2023-02-21T03:54:21.595Z,5.89
2023-02-21T03:55:33.211Z,5.91
2023-02-21T03:56:44.570Z,5.83
2023-02-21T03:57:55.477Z,5.83
2023-02-21T03:59:05.160Z,5.82
2023-02-21T04:00:15.244Z,5.68
2023-02-21T04:01:24.125Z,5.64
2023-02-21T04:02:33.530Z,5.68
2023-02-21T04:04:57.685Z,5.60
2023-02-21T04:06:07.632Z,5.55
2023-02-21T04:07:20.155Z,5.52
2023-02-21T04:08:29.785Z,5.49
2023-02-21T04:09:40.035Z,5.51
2023-02-21T04:10:52.702Z,5.50
2023-02-21T04:12:03.461Z,5.45
2023-02-21T04:13:14.353Z,5.49
2023-02-21T04:15:41.465Z,5.51
2023-02-21T04:16:52.242Z,5.47
2023-02-21T04:18:01.122Z,5.49
2023-02-21T04:19:10.623Z,5.48
2023-02-21T04:20:19.796Z,5.36
2023-02-21T04:21:30.664Z,5.29
2023-02-21T04:22:41.322Z,5.36
2023-02-21T04:23:49.850Z,5.36
2023-02-21T04:24:58.643Z,5.29
2023-02-21T04:26:07.949Z,5.29
2023-02-21T04:27:18.920Z,5.36
2023-02-21T04:28:30.033Z,5.47
2023-02-21T04:29:40.776Z,5.58
2023-02-21T04:30:50.023Z,5.70
2023-02-21T04:31:59.090Z,5.84
2023-02-21T04:33:09.668Z,5.81
2023-02-21T04:34:19.792Z,5.80
2023-02-21T04:35:29.020Z,5.78
2023-02-21T04:36:41.368Z,5.77
2023-02-21T04:37:51.434Z,5.81
2023-02-21T04:39:01.416Z,5.57
2023-02-21T04:40:11.873Z,5.62
2023-02-21T04:41:21.905Z,5.61
2023-02-21T04:42:31.738Z,5.58
2023-02-21T04:43:43.941Z,5.59
2023-02-21T04:46:08.242Z,5.60
2023-02-21T04:48:32.191Z,5.52
2023-02-21T04:49:42.861Z,5.43
2023-02-21T04:50:57.297Z,5.46
2023-02-21T04:52:05.705Z,5.50
2023-02-21T04:53:15.223Z,5.51
2023-02-21T04:54:26.083Z,5.51
2023-02-21T04:55:35.637Z,5.36
2023-02-21T04:56:44.948Z,5.28
2023-02-21T04:57:54.184Z,5.41
2023-02-21T04:59:04.322Z,5.42
2023-02-21T05:00:17.845Z,5.46
2023-02-21T05:02:47.149Z,5.48
2023-02-21T05:03:56.461Z,5.45
2023-02-21T05:05:07.162Z,5.31
2023-02-21T05:06:24.465Z,5.33
2023-02-21T05:07:32.952Z,5.37
2023-02-21T05:08:42.055Z,5.44
2023-02-21T05:09:52.462Z,5.49
2023-02-21T05:11:02.337Z,5.44
2023-02-21T05:12:12.387Z,5.44
2023-02-21T05:13:24.452Z,5.55
2023-02-21T05:14:33.988Z,5.63
2023-02-21T05:16:58.699Z,6.06
2023-02-21T05:18:09.372Z,6.08
2023-02-21T05:19:23.647Z,6.16
2023-02-21T05:20:33.199Z,6.22
2023-02-21T05:21:42.227Z,6.36
2023-02-21T05:22:51.839Z,6.54
2023-02-21T05:25:24.902Z,6.87
2023-02-21T05:27:53.890Z,7.21
2023-02-21T05:29:06.071Z,7.08
2023-02-21T05:30:18.603Z,7.09
2023-02-21T05:31:27.688Z,7.34
2023-02-21T05:32:37.144Z,7.65
2023-02-21T05:33:46.298Z,7.84
2023-02-21T05:34:55.491Z,7.97
2023-02-21T05:36:05.661Z,8.27
2023-02-21T05:37:15.669Z,8.43
2023-02-21T05:38:27.589Z,8.45
2023-02-21T05:39:37.230Z,8.50
2023-02-21T05:42:03.853Z,8.77
2023-02-21T05:44:27.348Z,9.07
2023-02-21T05:45:36.037Z,9.10
2023-02-21T05:46:45.671Z,9.12
2023-02-21T05:47:56.714Z,9.25
2023-02-21T05:49:06.028Z,9.39
2023-02-21T05:50:15.757Z,9.28
2023-02-21T05:51:25.174Z,9.09
2023-02-21T05:52:33.715Z,9.47
2023-02-21T05:53:42.805Z,9.81
2023-02-21T05:54:52.016Z,10.07
2023-02-21T05:56:00.976Z,10.07
2023-02-21T05:57:10.479Z,10.23
2023-02-21T05:58:19.118Z,10.28
2023-02-21T05:59:28.431Z,10.44
2023-02-21T06:00:37.251Z,10.35
2023-02-21T06:01:48.048Z,10.39
2023-02-21T06:02:57.838Z,10.43
2023-02-21T06:04:07.483Z,10.20
2023-02-21T06:05:17.199Z,10.12
2023-02-21T06:06:27.219Z,10.15
2023-02-21T06:07:37.533Z,10.13
2023-02-21T06:08:48.801Z,10.32
2023-02-21T06:09:57.907Z,10.36
2023-02-21T06:11:06.795Z,10.38
2023-02-21T06:12:16.704Z,10.44
2023-02-21T06:13:25.942Z,10.30
2023-02-21T06:14:35.506Z,10.29
2023-02-21T06:17:02.913Z,10.42
2023-02-21T06:18:14.601Z,10.06
2023-02-21T06:19:25.157Z,9.76
2023-02-21T06:20:34.184Z,9.89
2023-02-21T06:22:58.543Z,10.14
2023-02-21T06:24:09.142Z,9.82
2023-02-21T06:25:19.309Z,9.72
2023-02-21T06:26:28.721Z,9.68
2023-02-21T06:27:38.224Z,9.57
2023-02-21T06:28:47.747Z,9.57
2023-02-21T06:29:56.487Z,9.49
2023-02-21T06:31:06.625Z,9.45
2023-02-21T06:32:15.479Z,9.39
2023-02-21T06:34:40.209Z,9.48
2023-02-21T06:35:49.201Z,9.21
2023-02-21T06:36:58.699Z,9.24
2023-02-21T06:38:08.141Z,9.04
2023-02-21T06:39:17.241Z,8.94
2023-02-21T06:40:26.340Z,8.91
2023-02-21T06:42:50.385Z,8.90
2023-02-21T06:44:00.183Z,8.77
2023-02-21T06:46:28.880Z,8.59
2023-02-21T06:47:37.877Z,8.46
2023-02-21T06:48:47.871Z,8.37
2023-02-21T06:49:56.392Z,8.23
2023-02-21T06:51:09.618Z,8.21
2023-02-21T06:52:19.534Z,8.18
2023-02-21T06:53:28.103Z,8.07
2023-02-21T06:54:37.595Z,8.03
2023-02-21T06:55:46.812Z,7.99
2023-02-21T06:56:57.270Z,7.94
2023-02-21T06:58:06.335Z,7.89
2023-02-21T06:59:15.080Z,7.91
2023-02-21T07:00:26.715Z,7.88
2023-02-21T07:01:35.671Z,7.89
2023-02-21T07:02:45.313Z,7.89
2023-02-21T07:03:55.548Z,7.73
2023-02-21T07:06:20.856Z,7.89
2023-02-21T07:08:44.324Z,7.80
2023-02-21T07:09:55.317Z,7.70
2023-02-21T07:11:05.917Z,7.63
2023-02-21T07:12:14.511Z,7.63
2023-02-21T07:13:23.336Z,7.64
2023-02-21T07:14:32.651Z,7.56
2023-02-21T07:16:56.198Z,7.73
2023-02-21T07:18:05.457Z,7.63
2023-02-21T07:19:15.509Z,7.57
2023-02-21T07:20:25.124Z,7.44
2023-02-21T07:21:33.968Z,7.30
2023-02-21T07:23:58.044Z,7.54
2023-02-21T07:25:08.009Z,7.47
2023-02-21T07:26:18.961Z,7.43
2023-02-21T07:27:28.806Z,7.45
2023-02-21T07:28:38.312Z,7.47
2023-02-21T07:29:48.686Z,7.50
2023-02-21T07:32:13.294Z,7.58
2023-02-21T07:33:22.547Z,7.47
2023-02-21T07:34:31.716Z,7.45
2023-02-21T07:35:40.449Z,7.41
2023-02-21T07:38:05.479Z,7.49
2023-02-21T07:40:30.583Z,7.51
2023-02-21T07:41:40.363Z,7.30
2023-02-21T07:42:51.283Z,7.33
2023-02-21T07:44:00.942Z,7.38
2023-02-21T07:45:12.421Z,7.38
2023-02-21T07:47:45.341Z,7.46
2023-02-21T07:48:55.320Z,7.34
2023-02-21T07:50:06.166Z,7.32
2023-02-21T07:51:14.970Z,7.39
2023-02-21T07:52:23.966Z,7.40
2023-02-21T07:53:32.738Z,7.31
2023-02-21T07:54:41.676Z,7.43
2023-02-21T07:55:50.527Z,7.49
2023-02-21T07:57:00.625Z,7.51
2023-02-21T07:58:10.975Z,7.52
2023-02-21T07:59:30.627Z,7.51
2023-02-21T08:00:40.769Z,7.56
2023-02-21T08:01:50.131Z,7.60
2023-02-21T08:02:59.842Z,7.66
2023-02-21T08:04:10.557Z,7.71
2023-02-21T08:05:20.359Z,7.75
2023-02-21T08:06:34.451Z,7.58
2023-02-21T08:07:44.291Z,7.61
2023-02-21T08:08:55.234Z,7.56
2023-02-21T08:10:05.962Z,7.59
2023-02-21T08:12:29.994Z,7.79
2023-02-21T08:13:38.751Z,7.66
2023-02-21T08:14:49.352Z,7.64
2023-02-21T08:15:59.339Z,7.67
2023-02-21T08:17:09.116Z,7.71
2023-02-21T08:18:24.219Z,7.71
2023-02-21T08:19:34.124Z,7.63
2023-02-21T08:20:43.749Z,7.63
2023-02-21T08:21:53.218Z,7.69
2023-02-21T08:23:01.736Z,7.73
2023-02-21T08:24:14.151Z,7.73
2023-02-21T08:25:23.788Z,7.75
2023-02-21T08:27:49.683Z,7.84
2023-02-21T08:28:58.877Z,7.74
2023-02-21T08:30:10.273Z,7.71
2023-02-21T08:31:20.055Z,7.75
2023-02-21T08:33:46.512Z,7.88
2023-02-21T08:34:55.260Z,7.73
2023-02-21T08:36:04.500Z,7.75
2023-02-21T08:37:16.006Z,7.76
2023-02-21T08:38:26.048Z,7.65
2023-02-21T08:39:35.035Z,7.73
2023-02-21T08:40:46.052Z,7.76
2023-02-21T08:41:54.944Z,7.77
2023-02-21T08:43:06.322Z,7.81
2023-02-21T08:44:17.055Z,7.85
2023-02-21T08:45:27.691Z,7.89
2023-02-21T08:46:36.330Z,7.88
2023-02-21T08:47:45.665Z,7.94
2023-02-21T08:50:10.965Z,8.00
2023-02-21T08:51:26.077Z,7.86
2023-02-21T08:52:34.685Z,7.83
2023-02-21T08:53:43.503Z,7.81
2023-02-21T08:54:52.250Z,7.83
2023-02-21T08:56:01.281Z,7.78
2023-02-21T08:57:10.993Z,7.80
2023-02-21T08:58:19.829Z,7.79
2023-02-21T08:59:30.672Z,7.84
2023-02-21T09:00:41.498Z,7.84
2023-02-21T09:01:49.932Z,7.72
2023-02-21T09:02:59.631Z,7.77
2023-02-21T09:04:08.153Z,7.78
2023-02-21T09:05:24.234Z,7.74
2023-02-21T09:06:34.164Z,7.74
2023-02-21T09:07:42.964Z,7.68
2023-02-21T09:08:52.037Z,7.71
2023-02-21T09:10:01.490Z,7.74
2023-02-21T09:11:12.666Z,7.77
2023-02-21T09:13:57.332Z,7.91
2023-02-21T09:15:08.682Z,7.72
2023-02-21T09:16:18.544Z,7.79
2023-02-21T09:17:27.091Z,7.81
2023-02-21T09:18:35.893Z,7.77
2023-02-21T09:19:44.832Z,7.79
2023-02-21T09:20:56.230Z,7.78
2023-02-21T09:23:24.944Z,7.89
2023-02-21T09:24:35.027Z,7.83
2023-02-21T09:25:43.969Z,7.85
2023-02-21T09:28:14.042Z,7.95
2023-02-21T09:29:25.487Z,7.87
2023-02-21T09:30:36.444Z,7.85
2023-02-21T09:31:44.987Z,7.88
2023-02-21T09:32:55.297Z,7.86
2023-02-21T09:34:05.036Z,7.84
2023-02-21T09:35:15.593Z,7.82
2023-02-21T09:36:27.684Z,7.81
2023-02-21T09:38:58.969Z,7.79
2023-02-21T09:40:18.231Z,7.70
2023-02-21T09:42:43.733Z,7.75
2023-02-21T09:43:54.678Z,7.54
2023-02-21T09:45:04.911Z,7.61
2023-02-21T09:46:22.978Z,7.61
2023-02-21T09:47:35.879Z,7.60
2023-02-21T09:48:47.490Z,7.64
2023-02-21T09:51:25.127Z,7.88
2023-02-21T09:52:38.142Z,7.79
2023-02-21T09:53:48.377Z,7.79
2023-02-21T09:54:59.778Z,7.71
2023-02-21T09:56:16.705Z,7.70
2023-02-21T09:57:25.767Z,7.74
2023-02-21T09:59:53.227Z,7.66
2023-02-21T10:01:05.712Z,7.56
2023-02-21T10:02:27.914Z,7.51
2023-02-21T10:03:40.185Z,7.60
2023-02-21T10:04:58.285Z,7.56
2023-02-21T10:06:23.952Z,7.54
2023-02-21T10:07:51.238Z,7.55
2023-02-21T10:10:49.550Z,7.74
2023-02-21T10:12:27.509Z,7.61
2023-02-21T10:13:40.427Z,7.62
2023-02-21T10:15:12.537Z,7.67
2023-02-21T10:16:30.243Z,7.63
2023-02-21T10:17:42.623Z,7.66
2023-02-21T10:19:16.638Z,7.70
2023-02-21T10:20:39.803Z,7.71
2023-02-21T10:21:51.244Z,7.71
2023-02-21T10:23:03.768Z,7.70
2023-02-21T10:25:41.367Z,7.84
2023-02-21T10:28:22.855Z,7.73
2023-02-21T10:29:55.410Z,7.68
2023-02-21T10:32:36.909Z,7.83
2023-02-21T10:33:45.854Z,7.73
2023-02-21T10:34:55.024Z,7.59
2023-02-21T10:36:13.035Z,7.64
2023-02-21T10:39:05.590Z,7.62
2023-02-21T10:40:31.675Z,7.58
2023-02-21T10:41:42.397Z,7.55
2023-02-21T10:44:18.073Z,7.67
2023-02-21T10:45:40.429Z,7.43
2023-02-21T10:47:08.734Z,7.45
2023-02-21T10:49:42.911Z,7.36
2023-02-21T10:50:58.088Z,7.29
2023-02-21T10:52:10.399Z,7.27
2023-02-21T10:53:32.072Z,7.18
2023-02-21T10:54:41.325Z,7.17
2023-02-21T10:57:25.066Z,6.95
2023-02-21T10:58:36.609Z,6.96
2023-02-21T10:59:50.544Z,6.98
2023-02-21T11:04:18.652Z,6.97
2023-02-21T11:05:28.588Z,6.87
2023-02-21T11:08:08.338Z,7.02
2023-02-21T11:10:44.003Z,6.97
2023-02-21T11:12:19.858Z,6.86
2023-02-21T11:13:28.926Z,6.87
2023-02-21T11:14:38.708Z,6.84
2023-02-21T11:15:47.949Z,6.85
2023-02-21T11:17:15.367Z,6.90
2023-02-21T11:18:27.569Z,6.91
2023-02-21T11:19:48.682Z,6.95
2023-02-21T11:22:19.511Z,7.03
2023-02-21T11:25:19.742Z,7.06
2023-02-21T11:28:17.263Z,7.14
2023-02-21T11:29:27.802Z,6.96
2023-02-21T11:30:40.428Z,6.93
2023-02-21T11:31:50.428Z,6.98
2023-02-21T11:33:03.046Z,6.97
2023-02-21T11:34:15.285Z,7.05
2023-02-21T11:36:45.549Z,7.03
2023-02-21T11:38:00.360Z,6.95
2023-02-21T11:40:43.372Z,7.07
2023-02-21T11:43:23.708Z,7.06
2023-02-21T11:46:16.244Z,7.13
2023-02-21T11:49:15.755Z,7.16
2023-02-21T11:51:56.369Z,7.14
2023-02-21T11:53:33.507Z,7.10
2023-02-21T11:54:44.457Z,7.05
2023-02-21T11:57:41.828Z,7.14
2023-02-21T11:59:18.232Z,7.08
2023-02-21T12:02:25.150Z,7.29
2023-02-21T12:03:43.770Z,7.29
2023-02-21T12:05:12.577Z,7.34
2023-02-21T12:06:50.019Z,7.38
2023-02-21T12:08:19.281Z,7.39
2023-02-21T12:12:48.857Z,7.54
2023-02-21T12:14:16.174Z,7.45
2023-02-21T12:15:28.473Z,7.52
2023-02-21T12:16:43.610Z,7.55
2023-02-21T12:17:59.448Z,7.48
2023-02-21T12:19:33.821Z,7.40
2023-02-21T12:21:06.217Z,7.44
2023-02-21T12:22:21.472Z,7.34
2023-02-21T12:23:36.856Z,7.29
2023-02-21T12:24:56.211Z,7.28
2023-02-21T12:26:22.772Z,7.27
2023-02-21T12:27:54.441Z,7.26
2023-02-21T12:29:34.640Z,7.26
2023-02-21T12:31:06.715Z,7.10
2023-02-21T12:32:49.952Z,7.15
2023-02-21T12:35:50.938Z,7.22
2023-02-21T12:39:13.954Z,7.30
2023-02-21T12:43:49.171Z,7.28
2023-02-21T12:45:04.736Z,7.15
2023-02-21T12:47:42.017Z,7.42
2023-02-21T12:49:11.586Z,7.31
2023-02-21T12:50:27.191Z,7.30
2023-02-21T12:53:03.698Z,7.41
2023-02-21T12:55:48.154Z,7.42
2023-02-21T12:58:31.798Z,7.43
2023-02-21T12:59:54.050Z,7.39
2023-02-21T13:01:21.495Z,7.36
2023-02-21T13:02:40.844Z,7.43
2023-02-21T13:05:59.311Z,7.60
2023-02-21T13:08:57.670Z,7.61
2023-02-21T13:10:18.954Z,7.45
2023-02-21T13:13:03.193Z,7.72
2023-02-21T13:14:18.828Z,7.53
2023-02-21T13:15:31.668Z,7.62
2023-02-21T13:16:40.682Z,7.61
2023-02-21T13:19:13.391Z,7.77
2023-02-21T13:20:26.454Z,7.68
2023-02-21T13:23:42.144Z,7.90
2023-02-21T13:25:00.055Z,7.73
2023-02-21T13:26:22.643Z,7.69
2023-02-21T13:27:41.264Z,7.70
2023-02-21T13:28:55.344Z,7.74
2023-02-21T13:30:14.472Z,7.73
2023-02-21T13:34:11.499Z,7.89
2023-02-21T13:35:23.927Z,7.83
2023-02-21T13:36:39.345Z,7.83
2023-02-21T13:39:15.622Z,7.92
2023-02-21T13:41:57.658Z,7.90
2023-02-21T13:43:16.947Z,7.81
2023-02-21T13:44:31.876Z,7.75
2023-02-21T13:45:41.135Z,7.74
2023-02-21T13:49:54.223Z,7.76
2023-02-21T13:51:04.857Z,7.61
2023-02-21T13:52:23.488Z,7.53
2023-02-21T13:53:37.421Z,7.37
2023-02-21T13:55:19.373Z,7.41
2023-02-21T13:56:43.931Z,7.23
2023-02-21T13:58:00.565Z,7.19
2023-02-21T13:59:33.601Z,7.29
2023-02-21T14:00:46.024Z,7.17
2023-02-21T14:03:33.727Z,7.22
2023-02-21T14:04:59.415Z,7.11
2023-02-21T14:06:12.869Z,7.00
2023-02-21T14:07:44.064Z,6.89
2023-02-21T14:08:58.074Z,6.75
2023-02-21T14:10:17.339Z,6.82
2023-02-21T14:11:31.417Z,6.77
2023-02-21T14:12:44.872Z,6.73
2023-02-21T14:13:57.215Z,6.62
2023-02-21T14:15:08.452Z,6.60
2023-02-21T14:17:49.455Z,6.73
2023-02-21T14:19:11.141Z,6.52
2023-02-21T14:20:23.187Z,6.58
2023-02-21T14:21:35.868Z,6.59
2023-02-21T14:22:45.720Z,6.62
2023-02-21T14:24:13.384Z,6.51
2023-02-21T14:25:25.601Z,6.51
2023-02-21T14:28:45.977Z,6.59
2023-02-21T14:31:56.782Z,6.68
2023-02-21T14:36:13.160Z,6.59
2023-02-21T14:37:34.439Z,6.48
2023-02-21T14:38:44.609Z,6.50
2023-02-21T14:41:50.248Z,6.66
2023-02-21T14:43:32.994Z,6.58
2023-02-21T14:46:46.345Z,6.76
2023-02-21T14:49:48.048Z,6.82
2023-02-21T14:51:23.318Z,6.72
2023-02-21T14:52:48.036Z,6.76
2023-02-21T14:54:19.307Z,6.79
2023-02-21T14:55:51.839Z,6.80
2023-02-21T14:57:26.562Z,6.76
2023-02-21T14:58:55.596Z,6.75
2023-02-21T15:00:12.162Z,6.77
2023-02-21T15:01:27.676Z,6.68
2023-02-21T15:07:52.630Z,6.93
2023-02-21T15:10:32.840Z,7.00
2023-02-21T15:11:43.550Z,6.88
2023-02-21T15:14:28.838Z,7.02
2023-02-21T15:15:42.522Z,6.94
2023-02-21T15:17:00.930Z,6.85
2023-02-21T15:18:14.196Z,6.93
2023-02-21T15:19:30.119Z,6.94
2023-02-21T15:20:41.626Z,6.92
2023-02-21T15:23:27.182Z,7.00
2023-02-21T15:25:56.676Z,6.93
2023-02-21T15:28:32.381Z,6.93
2023-02-21T15:29:42.265Z,6.85
2023-02-21T15:30:58.765Z,6.75
2023-02-21T15:33:29.670Z,6.91
2023-02-21T15:34:45.007Z,6.79
2023-02-21T15:35:56.932Z,6.78
2023-02-21T15:37:22.637Z,6.81
2023-02-21T15:40:05.080Z,6.89
2023-02-21T15:41:36.262Z,6.80
2023-02-21T15:42:47.215Z,6.76
2023-02-21T15:44:08.836Z,6.77
2023-02-21T15:46:52.467Z,6.42
2023-02-21T15:48:03.595Z,6.22
2023-02-21T15:49:20.347Z,5.94
2023-02-21T15:50:34.806Z,5.95
2023-02-21T15:51:43.870Z,5.75
2023-02-21T15:52:54.030Z,5.70
2023-02-21T15:55:48.765Z,5.08
2023-02-21T15:57:09.555Z,5.21
2023-02-21T15:58:26.846Z,5.22
2023-02-21T15:59:40.362Z,5.18
2023-02-21T16:02:26.276Z,5.45
2023-02-21T16:03:42.957Z,5.48
2023-02-21T16:04:53.199Z,5.56
2023-02-21T16:07:48.795Z,5.51
2023-02-21T16:10:35.258Z,5.53
2023-02-21T16:11:47.720Z,5.45
2023-02-21T16:12:59.673Z,5.71
2023-02-21T16:14:41.735Z,5.53
2023-02-21T16:15:51.532Z,5.43
2023-02-21T16:17:23.413Z,5.51
2023-02-21T16:18:33.511Z,5.32
2023-02-21T16:19:52.053Z,5.31
2023-02-21T16:21:07.350Z,5.32
2023-02-21T16:22:53.821Z,5.27
2023-02-21T16:23:46.892Z,5.15
2023-02-21T16:25:14.321Z,5.21
2023-02-21T16:26:27.774Z,5.18
2023-02-21T16:27:38.206Z,5.16
2023-02-21T16:28:47.027Z,5.18
2023-02-21T16:29:56.831Z,5.28
2023-02-21T16:31:13.120Z,5.35
2023-02-21T16:32:22.265Z,5.51
2023-02-21T16:33:32.530Z,5.62
2023-02-21T16:34:41.274Z,5.49
2023-02-21T16:35:49.711Z,5.53
2023-02-21T16:38:26.455Z,5.36
2023-02-21T16:39:36.803Z,5.11
2023-02-21T16:40:52.570Z,4.93
2023-02-21T16:42:02.710Z,4.98
2023-02-21T16:44:36.869Z,5.04
2023-02-21T16:45:47.945Z,4.78
2023-02-21T16:46:57.074Z,4.81
2023-02-21T16:48:16.992Z,4.83
2023-02-21T16:49:25.795Z,4.75
2023-02-21T16:50:38.004Z,4.80
2023-02-21T16:51:48.299Z,4.91
2023-02-21T16:52:57.889Z,5.09
2023-02-21T16:54:20.014Z,5.14
2023-02-21T16:55:33.025Z,5.09
2023-02-21T16:56:46.001Z,5.25
2023-02-21T16:59:40.026Z,5.24
2023-02-21T17:02:04.588Z,5.07
2023-02-21T17:03:13.274Z,5.01
2023-02-21T17:04:26.350Z,5.00
2023-02-21T17:05:35.586Z,4.97
2023-02-21T17:06:47.086Z,4.89
2023-02-21T17:07:58.166Z,4.83
2023-02-21T17:09:07.135Z,4.82
2023-02-21T17:10:16.677Z,4.81
2023-02-21T17:11:26.614Z,4.76
2023-02-21T17:12:35.159Z,4.74
2023-02-21T17:13:44.076Z,4.69
2023-02-21T17:14:53.340Z,4.66
2023-02-21T17:16:02.245Z,4.62
2023-02-21T17:17:11.674Z,4.61
2023-02-21T17:18:20.991Z,4.69
2023-02-21T17:19:30.529Z,4.80
2023-02-21T17:20:39.559Z,4.89
2023-02-21T17:21:48.393Z,4.91
2023-02-21T17:24:32.291Z,5.19
2023-02-21T17:25:41.963Z,5.04
2023-02-21T17:26:53.084Z,4.91
2023-02-21T17:28:03.473Z,4.91
2023-02-21T17:29:12.388Z,4.92
2023-02-21T17:30:24.744Z,4.91
2023-02-21T17:31:34.235Z,4.85
2023-02-21T17:32:45.368Z,4.84
2023-02-21T17:33:54.109Z,4.79
2023-02-21T17:35:03.401Z,4.74
2023-02-21T17:36:20.683Z,4.74
2023-02-21T17:37:29.442Z,4.70
2023-02-21T17:38:38.385Z,4.65
2023-02-21T17:39:54.899Z,4.54
2023-02-21T17:41:16.868Z,4.54
2023-02-21T17:43:41.747Z,4.77
2023-02-21T17:44:53.691Z,4.84
2023-02-21T17:46:02.893Z,4.91
2023-02-21T17:47:11.414Z,4.97
2023-02-21T17:48:20.484Z,5.11
2023-02-21T17:49:29.213Z,5.23
2023-02-21T17:50:46.225Z,5.18
2023-02-21T17:51:55.767Z,5.16
2023-02-21T17:53:04.870Z,5.15
2023-02-21T17:54:17.918Z,5.16
2023-02-21T17:55:28.643Z,5.08
2023-02-21T17:56:37.901Z,5.11
2023-02-21T17:57:46.682Z,5.09
2023-02-21T17:58:56.678Z,5.07
2023-02-21T18:00:09.220Z,4.89
2023-02-21T18:01:20.476Z,4.86
2023-02-21T18:02:29.184Z,4.78
2023-02-21T18:04:52.682Z,4.85
2023-02-21T18:06:02.509Z,4.74
2023-02-21T18:07:11.957Z,4.65
2023-02-21T18:08:21.140Z,4.49
2023-02-21T18:09:31.827Z,4.32
2023-02-21T18:10:44.189Z,4.42
2023-02-21T18:11:56.119Z,4.50
2023-02-21T18:13:04.647Z,4.54
2023-02-21T18:14:14.060Z,4.49
2023-02-21T18:15:27.711Z,4.56
2023-02-21T18:16:37.569Z,4.67
2023-02-21T18:17:46.408Z,4.73
2023-02-21T18:20:12.710Z,4.95
2023-02-21T18:21:26.538Z,4.84
2023-02-21T18:22:36.143Z,4.77
2023-02-21T18:23:45.875Z,4.77
2023-02-21T18:24:56.422Z,4.72
2023-02-21T18:26:05.257Z,4.75
2023-02-21T18:27:15.191Z,4.71
2023-02-21T18:28:24.333Z,4.67
2023-02-21T18:29:33.003Z,4.62
2023-02-21T18:30:42.920Z,4.56
2023-02-21T18:31:55.759Z,4.52
2023-02-21T18:33:04.674Z,4.47
2023-02-21T18:34:13.453Z,4.42
2023-02-21T18:35:22.282Z,4.33
2023-02-21T18:36:34.508Z,4.38
2023-02-21T18:37:47.750Z,4.43
2023-02-21T18:39:03.589Z,4.38
2023-02-21T18:41:33.785Z,4.32
2023-02-21T18:42:44.419Z,4.28
2023-02-21T18:43:52.953Z,4.33
2023-02-21T18:45:02.740Z,4.36
2023-02-21T18:46:15.412Z,4.42
2023-02-21T18:47:25.869Z,4.55
2023-02-21T18:48:34.842Z,4.65
2023-02-21T18:49:44.349Z,4.73
2023-02-21T18:50:55.605Z,4.74
2023-02-21T18:52:09.744Z,4.49
2023-02-21T18:53:20.329Z,4.62
2023-02-21T18:54:29.107Z,4.63
2023-02-21T18:55:39.399Z,4.62
2023-02-21T18:56:58.891Z,4.54
2023-02-21T18:58:09.657Z,4.54
2023-02-21T19:00:40.320Z,4.63
2023-02-21T19:01:50.885Z,4.51
2023-02-21T19:03:02.697Z,4.44
2023-02-21T19:04:12.409Z,4.44
2023-02-21T19:06:38.721Z,4.57
2023-02-21T19:07:47.908Z,4.41
2023-02-21T19:08:57.456Z,4.44
2023-02-21T19:11:21.415Z,4.48
2023-02-21T19:12:30.363Z,4.38
2023-02-21T19:13:39.639Z,4.28
2023-02-21T19:16:05.315Z,4.40
2023-02-21T19:17:14.596Z,4.19
2023-02-21T19:18:23.351Z,4.25
2023-02-21T19:19:33.565Z,4.25
2023-02-21T19:20:43.611Z,4.24
2023-02-21T19:23:10.116Z,4.28
2023-02-21T19:24:21.119Z,4.10
2023-02-21T19:25:32.589Z,4.09
2023-02-21T19:26:45.219Z,4.14
2023-02-21T19:28:01.897Z,4.20
2023-02-21T19:29:11.208Z,4.24
2023-02-21T19:30:20.499Z,4.32
2023-02-21T19:31:29.206Z,4.36
2023-02-21T19:32:45.682Z,4.41
2023-02-21T19:33:56.133Z,4.33
2023-02-21T19:35:07.592Z,4.38
2023-02-21T19:36:17.130Z,4.30
2023-02-21T19:37:27.909Z,4.32
2023-02-21T19:38:38.287Z,4.22
2023-02-21T19:41:06.788Z,4.31
2023-02-21T19:42:15.447Z,4.22
2023-02-21T19:43:24.465Z,4.17
2023-02-21T19:44:32.977Z,4.01
2023-02-21T19:45:42.816Z,4.07
2023-02-21T19:46:51.523Z,3.99
2023-02-21T19:48:00.643Z,3.92
2023-02-21T19:49:20.294Z,4.04
2023-02-21T19:50:30.322Z,4.10